sensor_id;sensor_type;location;lat;lon;timestamp;pressure;altitude;pressure_sealevel;temperature;humidity
19777;BME280;10047;42.490;26.012;2024-03-06T00:00:06;142152.41;;;9.43;100.00
19777;BME280;10047;42.490;26.012;2024-03-06T00:02:34;142039.66;;;8.85;100.00
19777;BME280;10047;42.490;26.012;2024-03-06T00:05:00;141998.97;;;8.83;100.00
19777;BME280;10047;42.490;26.012;2024-03-06T00:07:25;142128.50;;;9.40;100.00
19777;BME280;10047;42.490;26.012;2024-03-06T00:09:51;142054.19;;;9.39;100.00
19777;BME280;10047;42.490;26.012;2024-03-06T00:12:19;142111.59;;;9.34;100.00
19777;BME280;10047;42.490;26.012;2024-03-06T00:14:44;142137.47;;;9.47;100.00
19777;BME280;10047;42.490;26.012;2024-03-06T00:17:11;142080.34;;;9.08;100.00
19777;BME280;10047;42.490;26.012;2024-03-06T00:19:36;142123.19;;;9.20;100.00
19777;BME280;10047;42.490;26.012;2024-03-06T00:22:02;142102.09;;;9.44;100.00
19777;BME280;10047;42.490;26.012;2024-03-06T00:24:27;141986.28;;;8.67;100.00
19777;BME280;10047;42.490;26.012;2024-03-06T00:26:57;142131.16;;;9.25;100.00
19777;BME280;10047;42.490;26.012;2024-03-06T00:29:22;142024.84;;;8.96;100.00
19777;BME280;10047;42.490;26.012;2024-03-06T00:31:48;142089.50;;;9.36;100.00
19777;BME280;10047;42.490;26.012;2024-03-06T00:34:13;142120.69;;;9.48;100.00
19777;BME280;10047;42.490;26.012;2024-03-06T00:36:43;142092.22;;;9.35;100.00
19777;BME280;10047;42.490;26.012;2024-03-06T00:39:11;142179.59;;;9.27;100.00
19777;BME280;10047;42.490;26.012;2024-03-06T00:41:40;142009.28;;;8.97;100.00
19777;BME280;10047;42.490;26.012;2024-03-06T00:44:06;142046.69;;;8.81;100.00
19777;BME280;10047;42.490;26.012;2024-03-06T00:46:31;142152.19;;;9.30;100.00
19777;BME280;10047;42.490;26.012;2024-03-06T00:48:56;142110.47;;;9.26;100.00
19777;BME280;10047;42.490;26.012;2024-03-06T00:51:22;142163.75;;;9.37;100.00
19777;BME280;10047;42.490;26.012;2024-03-06T00:53:48;142007.56;;;8.99;100.00
19777;BME280;10047;42.490;26.012;2024-03-06T00:56:14;142083.16;;;9.35;100.00
19777;BME280;10047;42.490;26.012;2024-03-06T00:58:39;142168.91;;;9.58;100.00
19777;BME280;10047;42.490;26.012;2024-03-06T01:01:04;142041.06;;;9.34;100.00
19777;BME280;10047;42.490;26.012;2024-03-06T01:03:30;141909.00;;;8.62;100.00
19777;BME280;10047;42.490;26.012;2024-03-06T01:05:55;61596.09;;;-140.33;100.00
19777;BME280;10047;42.490;26.012;2024-03-06T01:08:24;142422.00;;;9.43;100.00
19777;BME280;10047;42.490;26.012;2024-03-06T01:10:52;141958.09;;;8.82;100.00
19777;BME280;10047;42.490;26.012;2024-03-06T01:13:20;142089.25;;;9.44;100.00
19777;BME280;10047;42.490;26.012;2024-03-06T01:15:46;141994.00;;;8.82;100.00
19777;BME280;10047;42.490;26.012;2024-03-06T01:18:11;141979.44;;;8.62;100.00
19777;BME280;10047;42.490;26.012;2024-03-06T01:20:36;142075.38;;;9.29;100.00
19777;BME280;10047;42.490;26.012;2024-03-06T01:23:02;142067.06;;;9.18;100.00
19777;BME280;10047;42.490;26.012;2024-03-06T01:25:28;141984.13;;;8.94;100.00
19777;BME280;10047;42.490;26.012;2024-03-06T01:27:53;141970.84;;;9.25;100.00
19777;BME280;10047;42.490;26.012;2024-03-06T01:30:19;142086.72;;;9.37;100.00
19777;BME280;10047;42.490;26.012;2024-03-06T01:32:44;141993.69;;;8.76;100.00
19777;BME280;10047;42.490;26.012;2024-03-06T01:35:10;141997.69;;;8.90;100.00
19777;BME280;10047;42.490;26.012;2024-03-06T01:37:35;142058.38;;;9.16;100.00
19777;BME280;10047;42.490;26.012;2024-03-06T01:40:01;141974.91;;;9.31;100.00
19777;BME280;10047;42.490;26.012;2024-03-06T01:42:29;142009.72;;;8.87;100.00
19777;BME280;10047;42.490;26.012;2024-03-06T01:44:54;141973.81;;;8.58;100.00
19777;BME280;10047;42.490;26.012;2024-03-06T01:47:20;141976.00;;;8.38;100.00
19777;BME280;10047;42.490;26.012;2024-03-06T01:49:46;142058.72;;;8.34;100.00
19777;BME280;10047;42.490;26.012;2024-03-06T01:52:13;142079.31;;;8.63;100.00
19777;BME280;10047;42.490;26.012;2024-03-06T01:54:40;141999.13;;;8.60;100.00
19777;BME280;10047;42.490;26.012;2024-03-06T01:57:06;61596.09;;;-140.33;100.00
19777;BME280;10047;42.490;26.012;2024-03-06T01:59:33;61596.09;;;-140.33;100.00
19777;BME280;10047;42.490;26.012;2024-03-06T02:01:58;61596.09;;;-140.33;100.00
19777;BME280;10047;42.490;26.012;2024-03-06T02:04:26;61596.09;;;-140.33;100.00
19777;BME280;10047;42.490;26.012;2024-03-06T02:06:53;61596.09;;;-140.33;100.00
19777;BME280;10047;42.490;26.012;2024-03-06T02:09:19;61596.09;;;-140.33;100.00
19777;BME280;10047;42.490;26.012;2024-03-06T02:11:45;61596.09;;;-140.33;100.00
19777;BME280;10047;42.490;26.012;2024-03-06T02:14:10;61596.09;;;-140.33;100.00
19777;BME280;10047;42.490;26.012;2024-03-06T02:16:36;103489.84;;;8.71;100.00
19777;BME280;10047;42.490;26.012;2024-03-06T02:19:04;141852.56;;;8.48;100.00
19777;BME280;10047;42.490;26.012;2024-03-06T02:21:30;61596.09;;;-140.33;100.00
19777;BME280;10047;42.490;26.012;2024-03-06T02:23:55;61596.09;;;-140.33;100.00
19777;BME280;10047;42.490;26.012;2024-03-06T02:26:21;61596.09;;;-140.33;100.00
19777;BME280;10047;42.490;26.012;2024-03-06T02:28:54;61596.09;;;-140.33;100.00
19777;BME280;10047;42.490;26.012;2024-03-06T02:31:20;61596.09;;;-140.33;100.00
19777;BME280;10047;42.490;26.012;2024-03-06T02:33:47;61596.09;;;-140.33;100.00
19777;BME280;10047;42.490;26.012;2024-03-06T02:36:14;142460.00;;;8.56;100.00
19777;BME280;10047;42.490;26.012;2024-03-06T02:38:40;61596.09;;;-140.33;100.00
19777;BME280;10047;42.490;26.012;2024-03-06T02:41:05;61596.09;;;-140.33;100.00
19777;BME280;10047;42.490;26.012;2024-03-06T02:43:32;61596.09;;;-140.33;100.00
19777;BME280;10047;42.490;26.012;2024-03-06T02:45:58;61596.09;;;-140.33;100.00
19777;BME280;10047;42.490;26.012;2024-03-06T02:48:23;61596.09;;;-140.33;100.00
19777;BME280;10047;42.490;26.012;2024-03-06T02:50:49;61596.09;;;-140.33;100.00
19777;BME280;10047;42.490;26.012;2024-03-06T02:53:14;61596.09;;;-140.33;100.00
19777;BME280;10047;42.490;26.012;2024-03-06T02:55:40;61596.09;;;-140.33;100.00
19777;BME280;10047;42.490;26.012;2024-03-06T02:58:05;61596.09;;;-140.33;100.00
19777;BME280;10047;42.490;26.012;2024-03-06T03:00:31;61596.09;;;-140.33;100.00
19777;BME280;10047;42.490;26.012;2024-03-06T03:02:57;61596.09;;;-140.33;100.00
19777;BME280;10047;42.490;26.012;2024-03-06T03:05:23;61596.09;;;-140.33;100.00
19777;BME280;10047;42.490;26.012;2024-03-06T03:07:49;61596.09;;;-140.33;100.00
19777;BME280;10047;42.490;26.012;2024-03-06T03:10:14;61596.09;;;-140.33;100.00
19777;BME280;10047;42.490;26.012;2024-03-06T03:12:40;61596.09;;;-140.33;100.00
19777;BME280;10047;42.490;26.012;2024-03-06T03:15:05;61596.09;;;-140.33;100.00
19777;BME280;10047;42.490;26.012;2024-03-06T03:17:32;61596.09;;;-140.33;100.00
19777;BME280;10047;42.490;26.012;2024-03-06T03:19:59;61596.09;;;-140.33;100.00
19777;BME280;10047;42.490;26.012;2024-03-06T03:22:24;61596.09;;;-140.33;100.00
19777;BME280;10047;42.490;26.012;2024-03-06T03:24:50;61596.09;;;-140.33;100.00
19777;BME280;10047;42.490;26.012;2024-03-06T03:27:15;61596.09;;;-140.33;100.00
19777;BME280;10047;42.490;26.012;2024-03-06T03:29:41;61596.09;;;-140.33;100.00
19777;BME280;10047;42.490;26.012;2024-03-06T03:32:06;61596.09;;;-140.33;100.00
19777;BME280;10047;42.490;26.012;2024-03-06T03:34:34;61596.09;;;-140.33;100.00
19777;BME280;10047;42.490;26.012;2024-03-06T03:37:00;61596.09;;;-140.33;100.00
19777;BME280;10047;42.490;26.012;2024-03-06T03:39:26;61596.09;;;-140.33;100.00
19777;BME280;10047;42.490;26.012;2024-03-06T03:41:52;61596.09;;;-140.33;100.00
19777;BME280;10047;42.490;26.012;2024-03-06T03:44:18;61596.09;;;-140.33;100.00
19777;BME280;10047;42.490;26.012;2024-03-06T03:46:45;61596.09;;;-140.33;100.00
19777;BME280;10047;42.490;26.012;2024-03-06T03:49:10;61596.09;;;-140.33;100.00
19777;BME280;10047;42.490;26.012;2024-03-06T03:51:37;61596.09;;;-140.33;100.00
19777;BME280;10047;42.490;26.012;2024-03-06T03:54:03;61596.09;;;-140.33;100.00
19777;BME280;10047;42.490;26.012;2024-03-06T03:56:29;61596.09;;;-140.33;100.00
19777;BME280;10047;42.490;26.012;2024-03-06T03:58:56;61596.09;;;-140.33;100.00
19777;BME280;10047;42.490;26.012;2024-03-06T04:01:22;61596.09;;;-140.33;100.00
19777;BME280;10047;42.490;26.012;2024-03-06T04:03:48;61596.09;;;-140.33;100.00
19777;BME280;10047;42.490;26.012;2024-03-06T04:06:14;61596.09;;;-140.33;100.00
19777;BME280;10047;42.490;26.012;2024-03-06T04:08:39;61596.09;;;-140.33;100.00
19777;BME280;10047;42.490;26.012;2024-03-06T04:11:05;61596.09;;;-140.33;100.00
19777;BME280;10047;42.490;26.012;2024-03-06T04:13:35;61596.09;;;-140.33;100.00
19777;BME280;10047;42.490;26.012;2024-03-06T04:16:01;61596.09;;;-140.33;100.00
19777;BME280;10047;42.490;26.012;2024-03-06T04:18:27;61596.09;;;-140.33;100.00
19777;BME280;10047;42.490;26.012;2024-03-06T04:20:53;61596.09;;;-140.33;100.00
19777;BME280;10047;42.490;26.012;2024-03-06T04:23:18;61596.09;;;-140.33;100.00
19777;BME280;10047;42.490;26.012;2024-03-06T04:25:43;61596.09;;;-140.33;100.00
19777;BME280;10047;42.490;26.012;2024-03-06T04:28:09;61596.09;;;-140.33;100.00
19777;BME280;10047;42.490;26.012;2024-03-06T04:30:35;61596.09;;;-140.33;100.00
19777;BME280;10047;42.490;26.012;2024-03-06T04:33:00;61596.09;;;-140.33;100.00
19777;BME280;10047;42.490;26.012;2024-03-06T04:35:26;61596.09;;;-140.33;100.00
19777;BME280;10047;42.490;26.012;2024-03-06T04:37:51;61596.09;;;-140.33;100.00
19777;BME280;10047;42.490;26.012;2024-03-06T04:40:17;61596.09;;;-140.33;100.00
19777;BME280;10047;42.490;26.012;2024-03-06T04:42:48;61596.09;;;-140.33;100.00
19777;BME280;10047;42.490;26.012;2024-03-06T04:45:17;61596.09;;;-140.33;100.00
19777;BME280;10047;42.490;26.012;2024-03-06T04:47:43;61596.09;;;-140.33;100.00
19777;BME280;10047;42.490;26.012;2024-03-06T04:50:12;61596.09;;;-140.33;100.00
19777;BME280;10047;42.490;26.012;2024-03-06T04:52:39;61596.09;;;-140.33;100.00
19777;BME280;10047;42.490;26.012;2024-03-06T04:55:06;61596.09;;;-140.33;100.00
19777;BME280;10047;42.490;26.012;2024-03-06T04:57:32;61596.09;;;-140.33;100.00
19777;BME280;10047;42.490;26.012;2024-03-06T04:59:57;61596.09;;;-140.33;100.00
19777;BME280;10047;42.490;26.012;2024-03-06T05:02:24;61596.09;;;-140.33;100.00
19777;BME280;10047;42.490;26.012;2024-03-06T05:04:51;61596.09;;;-140.33;100.00
19777;BME280;10047;42.490;26.012;2024-03-06T05:07:16;61596.09;;;-140.33;100.00
19777;BME280;10047;42.490;26.012;2024-03-06T05:09:41;61596.09;;;-140.33;100.00
19777;BME280;10047;42.490;26.012;2024-03-06T05:12:07;61596.09;;;-140.33;100.00
19777;BME280;10047;42.490;26.012;2024-03-06T05:14:33;61596.09;;;-140.33;100.00
19777;BME280;10047;42.490;26.012;2024-03-06T05:16:59;61596.09;;;-140.33;100.00
19777;BME280;10047;42.490;26.012;2024-03-06T05:19:24;74076.41;;;-140.33;100.00
19777;BME280;10047;42.490;26.012;2024-03-06T05:22:00;61596.09;;;-140.33;100.00
19777;BME280;10047;42.490;26.012;2024-03-06T05:24:25;61596.09;;;-140.33;100.00
19777;BME280;10047;42.490;26.012;2024-03-06T05:26:51;61596.09;;;-140.33;100.00
19777;BME280;10047;42.490;26.012;2024-03-06T05:29:16;61596.09;;;-140.33;100.00
19777;BME280;10047;42.490;26.012;2024-03-06T05:31:42;61596.09;;;-140.33;100.00
19777;BME280;10047;42.490;26.012;2024-03-06T05:34:07;61596.09;;;-140.33;100.00
19777;BME280;10047;42.490;26.012;2024-03-06T05:36:33;61596.09;;;-140.33;100.00
19777;BME280;10047;42.490;26.012;2024-03-06T05:38:58;61596.09;;;-140.33;100.00
19777;BME280;10047;42.490;26.012;2024-03-06T05:41:24;142287.69;;;8.22;100.00
19777;BME280;10047;42.490;26.012;2024-03-06T05:43:49;141324.69;;;8.12;100.00
19777;BME280;10047;42.490;26.012;2024-03-06T05:46:14;61596.09;;;-140.33;100.00
19777;BME280;10047;42.490;26.012;2024-03-06T05:48:41;61596.09;;;-140.33;100.00
19777;BME280;10047;42.490;26.012;2024-03-06T05:51:06;61596.09;;;-140.33;100.00
19777;BME280;10047;42.490;26.012;2024-03-06T05:53:39;61596.09;;;-140.33;100.00
19777;BME280;10047;42.490;26.012;2024-03-06T05:56:07;61596.09;;;-140.33;100.00
19777;BME280;10047;42.490;26.012;2024-03-06T05:58:33;61596.09;;;-140.33;100.00
19777;BME280;10047;42.490;26.012;2024-03-06T06:01:00;61596.09;;;-140.33;100.00
19777;BME280;10047;42.490;26.012;2024-03-06T06:03:26;61596.09;;;-140.33;100.00
19777;BME280;10047;42.490;26.012;2024-03-06T06:05:53;61596.09;;;-140.33;100.00
19777;BME280;10047;42.490;26.012;2024-03-06T06:08:19;142594.56;;;9.63;100.00
19777;BME280;10047;42.490;26.012;2024-03-06T06:10:44;141656.00;;;9.54;100.00
19777;BME280;10047;42.490;26.012;2024-03-06T06:13:10;61596.09;;;-140.33;100.00
19777;BME280;10047;42.490;26.012;2024-03-06T06:15:35;61596.09;;;-140.33;100.00
19777;BME280;10047;42.490;26.012;2024-03-06T06:18:09;61596.09;;;-140.33;100.00
19777;BME280;10047;42.490;26.012;2024-03-06T06:20:36;61596.09;;;-140.33;100.00
19777;BME280;10047;42.490;26.012;2024-03-06T06:23:01;61596.09;;;-140.33;100.00
19777;BME280;10047;42.490;26.012;2024-03-06T06:25:27;61596.09;;;-140.33;100.00
19777;BME280;10047;42.490;26.012;2024-03-06T06:27:52;61596.09;;;-140.33;100.00
19777;BME280;10047;42.490;26.012;2024-03-06T06:30:19;142612.56;;;-140.33;100.00
19777;BME280;10047;42.490;26.012;2024-03-06T06:32:44;141659.81;;;9.41;100.00
19777;BME280;10047;42.490;26.012;2024-03-06T06:35:11;141815.72;;;9.86;100.00
19777;BME280;10047;42.490;26.012;2024-03-06T06:37:39;141893.00;;;9.71;100.00
19777;BME280;10047;42.490;26.012;2024-03-06T06:40:08;141907.66;;;9.54;100.00
19777;BME280;10047;42.490;26.012;2024-03-06T06:42:35;141753.81;;;9.39;100.00
19777;BME280;10047;42.490;26.012;2024-03-06T06:45:04;141871.91;;;9.95;100.00
19777;BME280;10047;42.490;26.012;2024-03-06T06:47:31;141947.66;;;9.60;100.00
19777;BME280;10047;42.490;26.012;2024-03-06T06:49:57;141880.38;;;9.70;100.00
19777;BME280;10047;42.490;26.012;2024-03-06T06:52:22;141698.25;;;10.09;100.00
19777;BME280;10047;42.490;26.012;2024-03-06T06:54:47;141857.44;;;10.65;100.00
19777;BME280;10047;42.490;26.012;2024-03-06T06:57:15;141942.88;;;10.28;100.00
19777;BME280;10047;42.490;26.012;2024-03-06T06:59:40;141779.03;;;9.97;100.00
19777;BME280;10047;42.490;26.012;2024-03-06T07:02:06;141829.44;;;9.95;100.00
19777;BME280;10047;42.490;26.012;2024-03-06T07:04:31;141881.03;;;9.59;100.00
19777;BME280;10047;42.490;26.012;2024-03-06T07:06:57;141762.72;;;10.42;100.00
19777;BME280;10047;42.490;26.012;2024-03-06T07:09:22;141878.34;;;10.56;100.00
19777;BME280;10047;42.490;26.012;2024-03-06T07:11:50;141877.25;;;10.69;100.00
19777;BME280;10047;42.490;26.012;2024-03-06T07:14:15;141822.91;;;10.97;100.00
19777;BME280;10047;42.490;26.012;2024-03-06T07:16:44;141894.19;;;10.94;100.00
19777;BME280;10047;42.490;26.012;2024-03-06T07:19:10;61596.09;;;-140.33;100.00
19777;BME280;10047;42.490;26.012;2024-03-06T07:21:36;142313.97;;;10.93;100.00
19777;BME280;10047;42.490;26.012;2024-03-06T07:24:03;141865.34;;;10.09;100.00
19777;BME280;10047;42.490;26.012;2024-03-06T07:26:29;141846.44;;;10.00;100.00
19777;BME280;10047;42.490;26.012;2024-03-06T07:28:55;141855.66;;;10.74;100.00
19777;BME280;10047;42.490;26.012;2024-03-06T07:31:21;141898.31;;;10.53;100.00
19777;BME280;10047;42.490;26.012;2024-03-06T07:33:46;141929.50;;;10.44;100.00
19777;BME280;10047;42.490;26.012;2024-03-06T07:36:11;141735.81;;;10.95;100.00
19777;BME280;10047;42.490;26.012;2024-03-06T07:38:37;141815.25;;;11.23;100.00
19777;BME280;10047;42.490;26.012;2024-03-06T07:41:02;141811.47;;;11.42;100.00
19777;BME280;10047;42.490;26.012;2024-03-06T07:43:28;141784.38;;;10.57;100.00
19777;BME280;10047;42.490;26.012;2024-03-06T07:45:53;141831.13;;;10.27;100.00
19777;BME280;10047;42.490;26.012;2024-03-06T07:48:19;141868.53;;;11.20;100.00
19777;BME280;10047;42.490;26.012;2024-03-06T07:50:45;141937.72;;;10.89;100.00
19777;BME280;10047;42.490;26.012;2024-03-06T07:53:10;141898.22;;;11.33;100.00
19777;BME280;10047;42.490;26.012;2024-03-06T07:55:35;141764.31;;;11.13;100.00
19777;BME280;10047;42.490;26.012;2024-03-06T07:58:01;141832.47;;;11.60;100.00
19777;BME280;10047;42.490;26.012;2024-03-06T08:00:26;141924.81;;;11.94;100.00
19777;BME280;10047;42.490;26.012;2024-03-06T08:02:52;141942.44;;;11.57;100.00
19777;BME280;10047;42.490;26.012;2024-03-06T08:05:18;142009.13;;;11.66;100.00
19777;BME280;10047;42.490;26.012;2024-03-06T08:07:43;141936.28;;;12.21;100.00
19777;BME280;10047;42.490;26.012;2024-03-06T08:10:12;141919.72;;;11.68;100.00
19777;BME280;10047;42.490;26.012;2024-03-06T08:12:42;141931.13;;;11.36;100.00
19777;BME280;10047;42.490;26.012;2024-03-06T08:15:10;141965.41;;;11.45;100.00
19777;BME280;10047;42.490;26.012;2024-03-06T08:17:38;142019.50;;;12.63;100.00
19777;BME280;10047;42.490;26.012;2024-03-06T08:20:04;141985.81;;;12.44;100.00
19777;BME280;10047;42.490;26.012;2024-03-06T08:22:40;142031.22;;;12.62;100.00
19777;BME280;10047;42.490;26.012;2024-03-06T08:25:06;142209.31;;;12.30;100.00
19777;BME280;10047;42.490;26.012;2024-03-06T08:27:33;142065.59;;;11.67;100.00
19777;BME280;10047;42.490;26.012;2024-03-06T08:29:59;142091.41;;;12.32;100.00
19777;BME280;10047;42.490;26.012;2024-03-06T08:32:25;142048.78;;;13.47;100.00
19777;BME280;10047;42.490;26.012;2024-03-06T08:34:50;142176.34;;;11.94;100.00
19777;BME280;10047;42.490;26.012;2024-03-06T08:37:15;141986.22;;;13.62;100.00
19777;BME280;10047;42.490;26.012;2024-03-06T08:39:41;142036.25;;;12.44;100.00
19777;BME280;10047;42.490;26.012;2024-03-06T08:42:06;142144.13;;;13.36;100.00
19777;BME280;10047;42.490;26.012;2024-03-06T08:44:31;142399.38;;;12.87;100.00
19777;BME280;10047;42.490;26.012;2024-03-06T08:46:57;142131.31;;;13.17;100.00
19777;BME280;10047;42.490;26.012;2024-03-06T08:49:22;142495.56;;;12.97;100.00
19777;BME280;10047;42.490;26.012;2024-03-06T08:51:48;142357.25;;;12.52;100.00
19777;BME280;10047;42.490;26.012;2024-03-06T08:54:14;142400.97;;;13.38;100.00
19777;BME280;10047;42.490;26.012;2024-03-06T08:56:43;142357.41;;;12.51;100.00
19777;BME280;10047;42.490;26.012;2024-03-06T08:59:08;142531.09;;;13.91;100.00
19777;BME280;10047;42.490;26.012;2024-03-06T09:01:34;142483.00;;;13.67;100.00
19777;BME280;10047;42.490;26.012;2024-03-06T09:04:00;142684.72;;;13.80;100.00
19777;BME280;10047;42.490;26.012;2024-03-06T09:06:25;142707.03;;;13.78;100.00
19777;BME280;10047;42.490;26.012;2024-03-06T09:08:55;142770.22;;;13.46;100.00
19777;BME280;10047;42.490;26.012;2024-03-06T09:11:21;142737.63;;;12.80;100.00
19777;BME280;10047;42.490;26.012;2024-03-06T09:13:47;142709.25;;;13.14;100.00
19777;BME280;10047;42.490;26.012;2024-03-06T09:16:13;142670.69;;;13.20;100.00
19777;BME280;10047;42.490;26.012;2024-03-06T09:18:38;142666.34;;;13.22;100.00
19777;BME280;10047;42.490;26.012;2024-03-06T09:21:04;142573.84;;;12.53;100.00
19777;BME280;10047;42.490;26.012;2024-03-06T09:23:29;142594.53;;;13.06;100.00
19777;BME280;10047;42.490;26.012;2024-03-06T09:25:55;142590.91;;;12.58;100.00
19777;BME280;10047;42.490;26.012;2024-03-06T09:28:20;142695.38;;;12.92;100.00
19777;BME280;10047;42.490;26.012;2024-03-06T09:30:46;142685.06;;;13.32;100.00
19777;BME280;10047;42.490;26.012;2024-03-06T09:33:11;142631.69;;;13.07;100.00
19777;BME280;10047;42.490;26.012;2024-03-06T09:35:37;142736.59;;;13.46;100.00
19777;BME280;10047;42.490;26.012;2024-03-06T09:38:02;142753.84;;;13.37;100.00
19777;BME280;10047;42.490;26.012;2024-03-06T09:40:28;142782.19;;;13.64;100.00
19777;BME280;10047;42.490;26.012;2024-03-06T09:42:54;142713.50;;;13.32;100.00
19777;BME280;10047;42.490;26.012;2024-03-06T09:45:20;142543.94;;;12.67;100.00
19777;BME280;10047;42.490;26.012;2024-03-06T09:47:47;142724.00;;;13.31;100.00
19777;BME280;10047;42.490;26.012;2024-03-06T09:50:16;142730.47;;;13.64;100.00
19777;BME280;10047;42.490;26.012;2024-03-06T09:52:43;142715.13;;;13.57;100.00
19777;BME280;10047;42.490;26.012;2024-03-06T09:55:11;142582.91;;;12.79;100.00
19777;BME280;10047;42.490;26.012;2024-03-06T09:57:38;142603.72;;;13.25;100.00
19777;BME280;10047;42.490;26.012;2024-03-06T10:00:04;142408.63;;;12.46;100.00
19777;BME280;10047;42.490;26.012;2024-03-06T10:02:37;142553.84;;;13.23;100.00
19777;BME280;10047;42.490;26.012;2024-03-06T10:05:03;142600.16;;;13.43;100.00
19777;BME280;10047;42.490;26.012;2024-03-06T10:07:29;142471.53;;;13.14;100.00
19777;BME280;10047;42.490;26.012;2024-03-06T10:09:55;142420.81;;;12.96;100.00
19777;BME280;10047;42.490;26.012;2024-03-06T10:12:21;142300.47;;;12.52;100.00
19777;BME280;10047;42.490;26.012;2024-03-06T10:14:52;142209.69;;;12.21;100.00
19777;BME280;10047;42.490;26.012;2024-03-06T10:17:22;142319.53;;;12.73;100.00
19777;BME280;10047;42.490;26.012;2024-03-06T10:19:48;142273.22;;;12.52;100.00
19777;BME280;10047;42.490;26.012;2024-03-06T10:22:18;142214.28;;;12.31;100.00
19777;BME280;10047;42.490;26.012;2024-03-06T10:24:43;142237.66;;;12.82;100.00
19777;BME280;10047;42.490;26.012;2024-03-06T10:27:14;142131.16;;;12.14;100.00
19777;BME280;10047;42.490;26.012;2024-03-06T10:29:41;142110.47;;;12.20;100.00
19777;BME280;10047;42.490;26.012;2024-03-06T10:32:08;142118.03;;;12.22;100.00
19777;BME280;10047;42.490;26.012;2024-03-06T10:34:33;142150.16;;;12.61;100.00
19777;BME280;10047;42.490;26.012;2024-03-06T10:37:01;142193.81;;;12.56;100.00
19777;BME280;10047;42.490;26.012;2024-03-06T10:39:27;142275.59;;;12.99;100.00
19777;BME280;10047;42.490;26.012;2024-03-06T10:41:54;142163.47;;;12.59;100.00
19777;BME280;10047;42.490;26.012;2024-03-06T10:44:22;142106.31;;;12.35;100.00
19777;BME280;10047;42.490;26.012;2024-03-06T10:46:55;142139.44;;;12.57;100.00
19777;BME280;10047;42.490;26.012;2024-03-06T10:49:22;142160.44;;;12.81;100.00
19777;BME280;10047;42.490;26.012;2024-03-06T10:51:50;141971.03;;;12.08;100.00
19777;BME280;10047;42.490;26.012;2024-03-06T10:54:16;142188.19;;;12.97;100.00
19777;BME280;10047;42.490;26.012;2024-03-06T10:56:42;142130.44;;;12.82;100.00
19777;BME280;10047;42.490;26.012;2024-03-06T10:59:10;142163.94;;;13.09;100.00
19777;BME280;10047;42.490;26.012;2024-03-06T11:01:39;142108.13;;;12.97;100.00
19777;BME280;10047;42.490;26.012;2024-03-06T11:04:05;142112.69;;;13.07;100.00
19777;BME280;10047;42.490;26.012;2024-03-06T11:06:31;141979.34;;;12.70;100.00
19777;BME280;10047;42.490;26.012;2024-03-06T11:08:57;141896.03;;;12.54;100.00
19777;BME280;10047;42.490;26.012;2024-03-06T11:11:23;141956.09;;;13.01;100.00
19777;BME280;10047;42.490;26.012;2024-03-06T11:13:49;141828.91;;;12.61;100.00
19777;BME280;10047;42.490;26.012;2024-03-06T11:16:15;141742.94;;;12.40;100.00
19777;BME280;10047;42.490;26.012;2024-03-06T11:18:41;141766.19;;;12.83;100.00
19777;BME280;10047;42.490;26.012;2024-03-06T11:29:16;141777.28;;;13.11;100.00
19777;BME280;10047;42.490;26.012;2024-03-06T11:32:05;141590.72;;;12.40;100.00
19777;BME280;10047;42.490;26.012;2024-03-06T11:34:35;141809.81;;;13.35;100.00
19777;BME280;10047;42.490;26.012;2024-03-06T11:37:06;141676.31;;;13.12;100.00
19777;BME280;10047;42.490;26.012;2024-03-06T11:39:36;141493.75;;;12.16;100.00
19777;BME280;10047;42.490;26.012;2024-03-06T11:42:03;141488.72;;;12.22;100.00
19777;BME280;10047;42.490;26.012;2024-03-06T11:44:34;141504.47;;;12.33;100.00
19777;BME280;10047;42.490;26.012;2024-03-06T11:47:02;141642.94;;;12.92;100.00
19777;BME280;10047;42.490;26.012;2024-03-06T11:49:30;141476.84;;;12.35;100.00
19777;BME280;10047;42.490;26.012;2024-03-06T11:52:03;141586.44;;;12.85;100.00
19777;BME280;10047;42.490;26.012;2024-03-06T11:54:30;141643.38;;;13.09;100.00
19777;BME280;10047;42.490;26.012;2024-03-06T11:56:58;141534.16;;;12.88;100.00
19777;BME280;10047;42.490;26.012;2024-03-06T11:59:27;141595.50;;;12.72;100.00
19777;BME280;10047;42.490;26.012;2024-03-06T12:01:58;141701.72;;;13.14;100.00
19777;BME280;10047;42.490;26.012;2024-03-06T12:04:27;141698.09;;;13.19;100.00
19777;BME280;10047;42.490;26.012;2024-03-06T12:06:59;141706.13;;;13.12;100.00
19777;BME280;10047;42.490;26.012;2024-03-06T12:09:25;141669.31;;;12.96;100.00
19777;BME280;10047;42.490;26.012;2024-03-06T12:11:52;141657.25;;;12.92;100.00
19777;BME280;10047;42.490;26.012;2024-03-06T12:14:19;141590.81;;;12.52;100.00
19777;BME280;10047;42.490;26.012;2024-03-06T12:16:59;141722.28;;;12.65;100.00
19777;BME280;10047;42.490;26.012;2024-03-06T12:19:31;141751.75;;;13.16;100.00
19777;BME280;10047;42.490;26.012;2024-03-06T12:21:59;141754.38;;;13.46;100.00
19777;BME280;10047;42.490;26.012;2024-03-06T12:24:25;141613.28;;;13.29;100.00
19777;BME280;10047;42.490;26.012;2024-03-06T12:27:00;141561.50;;;13.24;100.00
19777;BME280;10047;42.490;26.012;2024-03-06T12:29:28;141551.59;;;13.34;100.00
19777;BME280;10047;42.490;26.012;2024-03-06T12:31:55;141482.94;;;13.17;100.00